PWSweather.com
Personal Weather Stations
Station Observations
METEOBYST1
BystCZ

BystCZ

Lat: 50.124, Lon: 15.907

Elevation: 243

Station Type:

http://www.meteobyst.cz

Latest ConditionsUpdated 11:52:04 AM GMT+01:01 Wednesday, Nov 21, 2018
Currently Today's Max Today's Min Today's Average
Temperature 37.6°F3.1°C 37.8°F3.2°C 33.1°F0.6°C 34.3°F1.3°C
Dew Point 35.0°F1.7°C 35.0°F1.7°C 32.0°F0.0°C 33.4°F0.8°C
Winds Calm Calm 2.7 mph -4.3 kmh - - 1.0 mph 1.6 kmh
Wind Gusts 1.8 mph2.9 kmh 5.4 mph8.7 kmh - -
Humidity 88% 98% 88% 96%
Pressure 30.06 in1017.9 mb 30.08 in1018.6 mb 30.00 in1015.9 mb -
Hour Temp Dew Point Humidity Winds Wind Gusts Pressure Precip Precip Rate Daily Precip Total
11:52 AM 37.6°F3.1°C 35.0°F1.7°C 88% Calm Calm 1.8 mph2.9 kmh 30.06 in1017.9 mb 0.00 in0.0 mm 0.00 in0.0 mm 0.00 in0.0 mm
11:47 AM 37.8°F3.2°C 35.0°F1.7°C 89% 0.9 mph NW1.4 kmh NW 2.7 mph4.3 kmh 30.06 in1017.9 mb 0.00 in0.0 mm 0.00 in0.0 mm 0.00 in0.0 mm
11:42 AM 37.6°F3.1°C 35.0°F1.7°C 89% 0.9 mph NW1.4 kmh NW 2.7 mph4.3 kmh 30.07 in1018.3 mb 0.00 in0.0 mm 0.00 in0.0 mm 0.00 in0.0 mm
11:37 AM 37.4°F3.0°C 35.0°F1.7°C 89% 0.9 mph 1.4 kmh 2.7 mph4.3 kmh 30.07 in1018.3 mb 0.00 in0.0 mm 0.00 in0.0 mm 0.00 in0.0 mm
11:32 AM 37.2°F2.9°C 34.0°F1.1°C 89% Calm Calm 0.9 mph1.4 kmh 30.07 in1018.3 mb 0.00 in0.0 mm 0.00 in0.0 mm 0.00 in0.0 mm
11:27 AM 36.9°F2.7°C 34.0°F1.1°C 89% 0.9 mph NE1.4 kmh NE 3.6 mph5.8 kmh 30.07 in1018.3 mb 0.00 in0.0 mm 0.00 in0.0 mm 0.00 in0.0 mm
11:22 AM 37.2°F2.9°C 35.0°F1.7°C 91% 0.9 mph 1.4 kmh 2.7 mph4.3 kmh 30.07 in1018.3 mb 0.00 in0.0 mm 0.00 in0.0 mm 0.00 in0.0 mm
11:17 AM 37.0°F2.8°C 35.0°F1.7°C 91% 1.8 mph 2.9 kmh 2.7 mph4.3 kmh 30.07 in1018.3 mb 0.00 in0.0 mm 0.00 in0.0 mm 0.00 in0.0 mm
11:12 AM 37.0°F2.8°C 35.0°F1.7°C 92% 0.9 mph 1.4 kmh 3.6 mph5.8 kmh 30.07 in1018.3 mb 0.00 in0.0 mm 0.00 in0.0 mm 0.00 in0.0 mm
11:07 AM 36.9°F2.7°C 35.0°F1.7°C 92% 0.9 mph 1.4 kmh 3.6 mph5.8 kmh 30.07 in1018.3 mb 0.00 in0.0 mm 0.00 in0.0 mm 0.00 in0.0 mm
11:02 AM 36.7°F2.6°C 35.0°F1.7°C 92% 1.8 mph NE2.9 kmh NE 2.7 mph4.3 kmh 30.07 in1018.3 mb 0.00 in0.0 mm 0.00 in0.0 mm 0.00 in0.0 mm
10:57 AM 36.3°F2.4°C 35.0°F1.7°C 93% 0.9 mph 1.4 kmh 3.6 mph5.8 kmh 30.06 in1017.9 mb 0.00 in0.0 mm 0.00 in0.0 mm 0.00 in0.0 mm
10:52 AM 36.3°F2.4°C 35.0°F1.7°C 93% 0.9 mph NE1.4 kmh NE 2.7 mph4.3 kmh 30.07 in1018.3 mb 0.00 in0.0 mm 0.00 in0.0 mm 0.00 in0.0 mm
10:47 AM 36.1°F2.3°C 35.0°F1.7°C 94% 1.8 mph 2.9 kmh 3.6 mph5.8 kmh 30.07 in1018.3 mb 0.00 in0.0 mm 0.00 in0.0 mm 0.00 in0.0 mm
10:42 AM 36.1°F2.3°C 35.0°F1.7°C 93% 0.9 mph 1.4 kmh 3.6 mph5.8 kmh 30.08 in1018.6 mb 0.00 in0.0 mm 0.00 in0.0 mm 0.00 in0.0 mm
10:37 AM 36.1°F2.3°C 35.0°F1.7°C 93% 0.9 mph NE1.4 kmh NE 2.7 mph4.3 kmh 30.07 in1018.3 mb 0.00 in0.0 mm 0.00 in0.0 mm 0.00 in0.0 mm
10:32 AM 36.0°F2.2°C 34.0°F1.1°C 93% 1.8 mph 2.9 kmh 2.7 mph4.3 kmh 30.08 in1018.6 mb 0.00 in0.0 mm 0.00 in0.0 mm 0.00 in0.0 mm
10:27 AM 35.8°F2.1°C 34.0°F1.1°C 94% 0.9 mph 1.4 kmh 2.7 mph4.3 kmh 30.08 in1018.6 mb 0.00 in0.0 mm 0.00 in0.0 mm 0.00 in0.0 mm
10:22 AM 36.0°F2.2°C 35.0°F1.7°C 94% 1.8 mph 2.9 kmh 3.6 mph5.8 kmh 30.07 in1018.3 mb 0.00 in0.0 mm 0.00 in0.0 mm 0.00 in0.0 mm
10:17 AM 35.8°F2.1°C 34.0°F1.1°C 94% 0.9 mph 1.4 kmh 2.7 mph4.3 kmh 30.07 in1018.3 mb 0.00 in0.0 mm 0.00 in0.0 mm 0.00 in0.0 mm
10:12 AM 35.8°F2.1°C 34.0°F1.1°C 94% 0.9 mph NW1.4 kmh NW 2.7 mph4.3 kmh 30.07 in1018.3 mb 0.00 in0.0 mm 0.00 in0.0 mm 0.00 in0.0 mm
10:07 AM 35.6°F2.0°C 35.0°F1.7°C 95% 0.9 mph 1.4 kmh 2.7 mph4.3 kmh 30.07 in1018.3 mb 0.00 in0.0 mm 0.00 in0.0 mm 0.00 in0.0 mm
10:02 AM 35.6°F2.0°C 35.0°F1.7°C 95% 0.9 mph 1.4 kmh 1.8 mph2.9 kmh 30.07 in1018.3 mb 0.00 in0.0 mm 0.00 in0.0 mm 0.00 in0.0 mm
09:57 AM 35.4°F1.9°C 34.0°F1.1°C 94% 0.9 mph NE1.4 kmh NE 1.8 mph2.9 kmh 30.07 in1018.3 mb 0.00 in0.0 mm 0.00 in0.0 mm 0.00 in0.0 mm
09:52 AM 35.4°F1.9°C 34.0°F1.1°C 94% 0.9 mph 1.4 kmh 2.7 mph4.3 kmh 30.07 in1018.3 mb 0.00 in0.0 mm 0.00 in0.0 mm 0.00 in0.0 mm
09:47 AM 35.6°F2.0°C 34.0°F1.1°C 94% 0.9 mph 1.4 kmh 4.5 mph7.2 kmh 30.08 in1018.6 mb 0.00 in0.0 mm 0.00 in0.0 mm 0.00 in0.0 mm
09:42 AM 35.4°F1.9°C 34.0°F1.1°C 94% 0.9 mph E1.4 kmh E 2.7 mph4.3 kmh 30.07 in1018.3 mb 0.00 in0.0 mm 0.00 in0.0 mm 0.00 in0.0 mm
09:37 AM 35.2°F1.8°C 34.0°F1.1°C 94% 0.9 mph NE1.4 kmh NE 2.7 mph4.3 kmh 30.07 in1018.3 mb 0.00 in0.0 mm 0.00 in0.0 mm 0.00 in0.0 mm
09:32 AM 35.2°F1.8°C 34.0°F1.1°C 94% 1.8 mph 2.9 kmh 3.6 mph5.8 kmh 30.07 in1018.3 mb 0.00 in0.0 mm 0.00 in0.0 mm 0.00 in0.0 mm
09:27 AM 35.2°F1.8°C 34.0°F1.1°C 94% 0.9 mph 1.4 kmh 3.6 mph5.8 kmh 30.07 in1018.3 mb 0.00 in0.0 mm 0.00 in0.0 mm 0.00 in0.0 mm
09:22 AM 35.1°F1.7°C 34.0°F1.1°C 94% 0.9 mph 1.4 kmh 2.7 mph4.3 kmh 30.07 in1018.3 mb 0.00 in0.0 mm 0.00 in0.0 mm 0.00 in0.0 mm
09:17 AM 34.9°F1.6°C 34.0°F1.1°C 94% 1.8 mph 2.9 kmh 2.7 mph4.3 kmh 30.07 in1018.3 mb 0.00 in0.0 mm 0.00 in0.0 mm 0.00 in0.0 mm
09:12 AM 34.9°F1.6°C 34.0°F1.1°C 94% 0.9 mph 1.4 kmh 2.7 mph4.3 kmh 30.07 in1018.3 mb 0.00 in0.0 mm 0.00 in0.0 mm 0.00 in0.0 mm
09:07 AM 34.7°F1.5°C 33.0°F0.6°C 94% 0.9 mph NE1.4 kmh NE 2.7 mph4.3 kmh 30.08 in1018.6 mb 0.00 in0.0 mm 0.00 in0.0 mm 0.00 in0.0 mm
09:02 AM 34.9°F1.6°C 34.0°F1.1°C 95% 0.9 mph 1.4 kmh 2.7 mph4.3 kmh 30.07 in1018.3 mb 0.00 in0.0 mm 0.00 in0.0 mm 0.00 in0.0 mm
08:57 AM 34.7°F1.5°C 33.0°F0.6°C 94% 0.9 mph NW1.4 kmh NW 3.6 mph5.8 kmh 30.07 in1018.3 mb 0.00 in0.0 mm 0.00 in0.0 mm 0.00 in0.0 mm
08:52 AM 34.7°F1.5°C 34.0°F1.1°C 95% 0.9 mph 1.4 kmh 1.8 mph2.9 kmh 30.07 in1018.3 mb 0.00 in0.0 mm 0.00 in0.0 mm 0.00 in0.0 mm
08:47 AM 34.7°F1.5°C 33.0°F0.6°C 94% 0.9 mph NE1.4 kmh NE 2.7 mph4.3 kmh 30.07 in1018.3 mb 0.00 in0.0 mm 0.00 in0.0 mm 0.00 in0.0 mm
08:42 AM 34.9°F1.6°C 34.0°F1.1°C 95% 0.9 mph 1.4 kmh 1.8 mph2.9 kmh 30.07 in1018.3 mb 0.00 in0.0 mm 0.00 in0.0 mm 0.00 in0.0 mm
08:37 AM 34.7°F1.5°C 34.0°F1.1°C 95% 0.9 mph NE1.4 kmh NE 2.7 mph4.3 kmh 30.07 in1018.3 mb 0.00 in0.0 mm 0.00 in0.0 mm 0.00 in0.0 mm
08:32 AM 34.7°F1.5°C 34.0°F1.1°C 95% Calm Calm 1.8 mph2.9 kmh 30.07 in1018.3 mb 0.00 in0.0 mm 0.00 in0.0 mm 0.00 in0.0 mm
08:27 AM 34.5°F1.4°C 33.0°F0.6°C 95% Calm Calm 1.8 mph2.9 kmh 30.06 in1017.9 mb 0.00 in0.0 mm 0.00 in0.0 mm 0.00 in0.0 mm
08:22 AM 34.5°F1.4°C 33.0°F0.6°C 95% 0.9 mph NE1.4 kmh NE 1.8 mph2.9 kmh 30.06 in1017.9 mb 0.00 in0.0 mm 0.00 in0.0 mm 0.00 in0.0 mm
08:17 AM 34.3°F1.3°C 34.0°F1.1°C 96% Calm Calm 1.8 mph2.9 kmh 30.06 in1017.9 mb 0.00 in0.0 mm 0.00 in0.0 mm 0.00 in0.0 mm
08:12 AM 34.2°F1.2°C 33.0°F0.6°C 95% 0.9 mph 1.4 kmh 2.7 mph4.3 kmh 30.06 in1017.9 mb 0.00 in0.0 mm 0.00 in0.0 mm 0.00 in0.0 mm
08:07 AM 34.2°F1.2°C 33.0°F0.6°C 96% 0.9 mph 1.4 kmh 1.8 mph2.9 kmh 30.06 in1017.9 mb 0.00 in0.0 mm 0.00 in0.0 mm 0.00 in0.0 mm
08:02 AM 34.2°F1.2°C 33.0°F0.6°C 96% 0.9 mph 1.4 kmh 3.6 mph5.8 kmh 30.05 in1017.6 mb 0.00 in0.0 mm 0.00 in0.0 mm 0.00 in0.0 mm
07:57 AM 34.3°F1.3°C 33.0°F0.6°C 95% 0.9 mph 1.4 kmh 1.8 mph2.9 kmh 30.05 in1017.6 mb 0.00 in0.0 mm 0.00 in0.0 mm 0.00 in0.0 mm
07:52 AM 34.3°F1.3°C 33.0°F0.6°C 95% 0.9 mph 1.4 kmh 1.8 mph2.9 kmh 30.05 in1017.6 mb 0.00 in0.0 mm 0.00 in0.0 mm 0.00 in0.0 mm
07:47 AM 34.2°F1.2°C 33.0°F0.6°C 96% 0.9 mph NE1.4 kmh NE 2.7 mph4.3 kmh 30.05 in1017.6 mb 0.00 in0.0 mm 0.00 in0.0 mm 0.00 in0.0 mm
07:42 AM 34.2°F1.2°C 33.0°F0.6°C 96% 0.9 mph 1.4 kmh 1.8 mph2.9 kmh 30.05 in1017.6 mb 0.00 in0.0 mm 0.00 in0.0 mm 0.00 in0.0 mm
07:37 AM 34.2°F1.2°C 33.0°F0.6°C 96% 0.9 mph 1.4 kmh 2.7 mph4.3 kmh 30.04 in1017.3 mb 0.00 in0.0 mm 0.00 in0.0 mm 0.00 in0.0 mm
07:32 AM 34.2°F1.2°C 33.0°F0.6°C 96% 0.9 mph NE1.4 kmh NE 1.8 mph2.9 kmh 30.04 in1017.3 mb 0.00 in0.0 mm 0.00 in0.0 mm 0.00 in0.0 mm
07:27 AM 34.0°F1.1°C 33.0°F0.6°C 96% 0.9 mph 1.4 kmh 2.7 mph4.3 kmh 30.04 in1017.3 mb 0.00 in0.0 mm 0.00 in0.0 mm 0.00 in0.0 mm
07:22 AM 34.0°F1.1°C 33.0°F0.6°C 96% 0.9 mph 1.4 kmh 2.7 mph4.3 kmh 30.04 in1017.3 mb 0.00 in0.0 mm 0.00 in0.0 mm 0.00 in0.0 mm
07:17 AM 34.2°F1.2°C 33.0°F0.6°C 96% 0.9 mph NE1.4 kmh NE 2.7 mph4.3 kmh 30.04 in1017.3 mb 0.00 in0.0 mm 0.00 in0.0 mm 0.00 in0.0 mm
07:12 AM 34.0°F1.1°C 33.0°F0.6°C 95% 0.9 mph NE1.4 kmh NE 2.7 mph4.3 kmh 30.03 in1016.9 mb 0.00 in0.0 mm 0.00 in0.0 mm 0.00 in0.0 mm
07:07 AM 34.2°F1.2°C 33.0°F0.6°C 95% Calm Calm 1.8 mph2.9 kmh 30.03 in1016.9 mb 0.00 in0.0 mm 0.00 in0.0 mm 0.00 in0.0 mm
07:02 AM 34.2°F1.2°C 33.0°F0.6°C 95% 0.9 mph 1.4 kmh 1.8 mph2.9 kmh 30.03 in1016.9 mb 0.00 in0.0 mm 0.00 in0.0 mm 0.00 in0.0 mm
06:57 AM 34.2°F1.2°C 33.0°F0.6°C 95% Calm Calm 0.9 mph1.4 kmh 30.03 in1016.9 mb 0.00 in0.0 mm 0.00 in0.0 mm 0.00 in0.0 mm
06:52 AM 34.2°F1.2°C 33.0°F0.6°C 95% 0.9 mph 1.4 kmh 1.8 mph2.9 kmh 30.03 in1016.9 mb 0.00 in0.0 mm 0.00 in0.0 mm 0.00 in0.0 mm
06:47 AM 34.0°F1.1°C 33.0°F0.6°C 95% 0.9 mph NE1.4 kmh NE 2.7 mph4.3 kmh 30.02 in1016.6 mb 0.00 in0.0 mm 0.00 in0.0 mm 0.00 in0.0 mm
06:42 AM 34.0°F1.1°C 33.0°F0.6°C 96% Calm Calm 1.8 mph2.9 kmh 30.03 in1016.9 mb 0.00 in0.0 mm 0.00 in0.0 mm 0.00 in0.0 mm
06:37 AM 34.0°F1.1°C 33.0°F0.6°C 95% 0.9 mph 1.4 kmh 2.7 mph4.3 kmh 30.03 in1016.9 mb 0.00 in0.0 mm 0.00 in0.0 mm 0.00 in0.0 mm
06:32 AM 34.0°F1.1°C 33.0°F0.6°C 96% 0.9 mph 1.4 kmh 2.7 mph4.3 kmh 30.02 in1016.6 mb 0.00 in0.0 mm 0.00 in0.0 mm 0.00 in0.0 mm
06:27 AM 34.0°F1.1°C 33.0°F0.6°C 96% 0.9 mph 1.4 kmh 2.7 mph4.3 kmh 30.02 in1016.6 mb 0.00 in0.0 mm 0.00 in0.0 mm 0.00 in0.0 mm
06:22 AM 33.8°F1.0°C 33.0°F0.6°C 96% 0.9 mph NE1.4 kmh NE 2.7 mph4.3 kmh 30.03 in1016.9 mb 0.00 in0.0 mm 0.00 in0.0 mm 0.00 in0.0 mm
06:17 AM 34.0°F1.1°C 33.0°F0.6°C 96% 0.9 mph 1.4 kmh 1.8 mph2.9 kmh 30.02 in1016.6 mb 0.00 in0.0 mm 0.00 in0.0 mm 0.00 in0.0 mm
06:12 AM 34.0°F1.1°C 33.0°F0.6°C 96% 0.9 mph 1.4 kmh 2.7 mph4.3 kmh 30.03 in1016.9 mb 0.00 in0.0 mm 0.00 in0.0 mm 0.00 in0.0 mm
06:07 AM 34.0°F1.1°C 33.0°F0.6°C 97% 0.9 mph 1.4 kmh 1.8 mph2.9 kmh 30.03 in1016.9 mb 0.00 in0.0 mm 0.00 in0.0 mm 0.00 in0.0 mm
06:02 AM 33.8°F1.0°C 33.0°F0.6°C 96% 0.9 mph 1.4 kmh 2.7 mph4.3 kmh 30.03 in1016.9 mb 0.00 in0.0 mm 0.00 in0.0 mm 0.00 in0.0 mm
05:57 AM 33.8°F1.0°C 33.0°F0.6°C 96% 0.9 mph 1.4 kmh 2.7 mph4.3 kmh 30.03 in1016.9 mb 0.00 in0.0 mm 0.00 in0.0 mm 0.00 in0.0 mm
05:52 AM 34.0°F1.1°C 33.0°F0.6°C 96% 0.9 mph 1.4 kmh 2.7 mph4.3 kmh 30.03 in1016.9 mb 0.00 in0.0 mm 0.00 in0.0 mm 0.00 in0.0 mm
05:47 AM 34.0°F1.1°C 33.0°F0.6°C 96% Calm Calm 1.8 mph2.9 kmh 30.02 in1016.6 mb 0.00 in0.0 mm 0.00 in0.0 mm 0.00 in0.0 mm
05:42 AM 34.0°F1.1°C 33.0°F0.6°C 97% Calm Calm 0.9 mph1.4 kmh 30.02 in1016.6 mb 0.00 in0.0 mm 0.00 in0.0 mm 0.00 in0.0 mm
05:37 AM 34.0°F1.1°C 33.0°F0.6°C 97% Calm Calm 0.9 mph1.4 kmh 30.02 in1016.6 mb 0.00 in0.0 mm 0.00 in0.0 mm 0.00 in0.0 mm
05:32 AM 34.0°F1.1°C 33.0°F0.6°C 97% Calm Calm 0.9 mph1.4 kmh 30.02 in1016.6 mb 0.00 in0.0 mm 0.00 in0.0 mm 0.00 in0.0 mm
05:27 AM 33.8°F1.0°C 33.0°F0.6°C 97% 0.9 mph E1.4 kmh E 2.7 mph4.3 kmh 30.01 in1016.3 mb 0.00 in0.0 mm 0.00 in0.0 mm 0.00 in0.0 mm
05:22 AM 33.8°F1.0°C 33.0°F0.6°C 97% 0.9 mph NE1.4 kmh NE 2.7 mph4.3 kmh 30.02 in1016.6 mb 0.00 in0.0 mm 0.00 in0.0 mm 0.00 in0.0 mm
05:17 AM 33.8°F1.0°C 33.0°F0.6°C 97% 0.9 mph NE1.4 kmh NE 2.7 mph4.3 kmh 30.01 in1016.3 mb 0.00 in0.0 mm 0.00 in0.0 mm 0.00 in0.0 mm
05:12 AM 33.8°F1.0°C 33.0°F0.6°C 97% 0.9 mph NE1.4 kmh NE 2.7 mph4.3 kmh 30.01 in1016.3 mb 0.00 in0.0 mm 0.00 in0.0 mm 0.00 in0.0 mm
05:07 AM 33.6°F0.9°C 33.0°F0.6°C 97% 0.9 mph E1.4 kmh E 3.6 mph5.8 kmh 30.01 in1016.3 mb 0.00 in0.0 mm 0.00 in0.0 mm 0.00 in0.0 mm
05:02 AM 33.6°F0.9°C 33.0°F0.6°C 97% 0.9 mph NE1.4 kmh NE 3.6 mph5.8 kmh 30.01 in1016.3 mb 0.00 in0.0 mm 0.00 in0.0 mm 0.00 in0.0 mm
04:57 AM 33.6°F0.9°C 33.0°F0.6°C 97% 0.9 mph NE1.4 kmh NE 2.7 mph4.3 kmh 30.01 in1016.3 mb 0.00 in0.0 mm 0.00 in0.0 mm 0.00 in0.0 mm
04:52 AM 33.6°F0.9°C 33.0°F0.6°C 97% 0.9 mph NE1.4 kmh NE 2.7 mph4.3 kmh 30.01 in1016.3 mb 0.00 in0.0 mm 0.00 in0.0 mm 0.00 in0.0 mm
04:47 AM 33.6°F0.9°C 33.0°F0.6°C 97% 0.9 mph NE1.4 kmh NE 2.7 mph4.3 kmh 30.01 in1016.3 mb 0.00 in0.0 mm 0.00 in0.0 mm 0.00 in0.0 mm
04:42 AM 33.6°F0.9°C 33.0°F0.6°C 97% 0.9 mph NE1.4 kmh NE 2.7 mph4.3 kmh 30.01 in1016.3 mb 0.00 in0.0 mm 0.00 in0.0 mm 0.00 in0.0 mm
04:37 AM 33.6°F0.9°C 33.0°F0.6°C 97% 0.9 mph 1.4 kmh 2.7 mph4.3 kmh 30.00 in1015.9 mb 0.00 in0.0 mm 0.00 in0.0 mm 0.00 in0.0 mm
04:32 AM 33.6°F0.9°C 33.0°F0.6°C 97% 0.9 mph 1.4 kmh 2.7 mph4.3 kmh 30.00 in1015.9 mb 0.00 in0.0 mm 0.00 in0.0 mm 0.00 in0.0 mm
04:27 AM 33.6°F0.9°C 33.0°F0.6°C 97% 0.9 mph E1.4 kmh E 2.7 mph4.3 kmh 30.00 in1015.9 mb 0.00 in0.0 mm 0.00 in0.0 mm 0.00 in0.0 mm
04:22 AM 33.4°F0.8°C 33.0°F0.6°C 97% 1.8 mph NE2.9 kmh NE 3.6 mph5.8 kmh 30.01 in1016.3 mb 0.00 in0.0 mm 0.00 in0.0 mm 0.00 in0.0 mm
04:17 AM 33.4°F0.8°C 33.0°F0.6°C 97% 1.8 mph 2.9 kmh 3.6 mph5.8 kmh 30.01 in1016.3 mb 0.00 in0.0 mm 0.00 in0.0 mm 0.00 in0.0 mm
04:12 AM 33.6°F0.9°C 33.0°F0.6°C 97% 1.8 mph 2.9 kmh 3.6 mph5.8 kmh 30.00 in1015.9 mb 0.00 in0.0 mm 0.00 in0.0 mm 0.00 in0.0 mm
04:07 AM 33.4°F0.8°C 33.0°F0.6°C 97% 0.9 mph E1.4 kmh E 4.5 mph7.2 kmh 30.01 in1016.3 mb 0.00 in0.0 mm 0.00 in0.0 mm 0.00 in0.0 mm
04:02 AM 33.4°F0.8°C 33.0°F0.6°C 97% 0.9 mph NE1.4 kmh NE 3.6 mph5.8 kmh 30.01 in1016.3 mb 0.00 in0.0 mm 0.00 in0.0 mm 0.00 in0.0 mm
03:57 AM 33.4°F0.8°C 33.0°F0.6°C 97% 1.8 mph 2.9 kmh 4.5 mph7.2 kmh 30.01 in1016.3 mb 0.00 in0.0 mm 0.00 in0.0 mm 0.00 in0.0 mm
03:52 AM 33.6°F0.9°C 33.0°F0.6°C 97% 1.8 mph NE2.9 kmh NE 2.7 mph4.3 kmh 30.01 in1016.3 mb 0.00 in0.0 mm 0.00 in0.0 mm 0.00 in0.0 mm
03:47 AM 33.4°F0.8°C 33.0°F0.6°C 96% 0.9 mph 1.4 kmh 2.7 mph4.3 kmh 30.01 in1016.3 mb 0.00 in0.0 mm 0.00 in0.0 mm 0.00 in0.0 mm
03:42 AM 33.4°F0.8°C 33.0°F0.6°C 97% 0.9 mph NE1.4 kmh NE 3.6 mph5.8 kmh 30.01 in1016.3 mb 0.00 in0.0 mm 0.00 in0.0 mm 0.00 in0.0 mm
03:37 AM 33.4°F0.8°C 33.0°F0.6°C 97% 0.9 mph 1.4 kmh 2.7 mph4.3 kmh 30.01 in1016.3 mb 0.00 in0.0 mm 0.00 in0.0 mm 0.00 in0.0 mm
03:32 AM 33.4°F0.8°C 33.0°F0.6°C 97% 0.9 mph 1.4 kmh 2.7 mph4.3 kmh 30.01 in1016.3 mb 0.00 in0.0 mm 0.00 in0.0 mm 0.00 in0.0 mm
03:27 AM 33.4°F0.8°C 33.0°F0.6°C 97% 0.9 mph NW1.4 kmh NW 1.8 mph2.9 kmh 30.01 in1016.3 mb 0.00 in0.0 mm 0.00 in0.0 mm 0.00 in0.0 mm
03:22 AM 33.4°F0.8°C 33.0°F0.6°C 97% 0.9 mph NE1.4 kmh NE 1.8 mph2.9 kmh 30.01 in1016.3 mb 0.00 in0.0 mm 0.00 in0.0 mm 0.00 in0.0 mm
03:17 AM 33.4°F0.8°C 33.0°F0.6°C 97% 0.9 mph 1.4 kmh 3.6 mph5.8 kmh 30.01 in1016.3 mb 0.00 in0.0 mm 0.00 in0.0 mm 0.00 in0.0 mm
03:12 AM 33.4°F0.8°C 33.0°F0.6°C 97% 0.9 mph 1.4 kmh 1.8 mph2.9 kmh 30.01 in1016.3 mb 0.00 in0.0 mm 0.00 in0.0 mm 0.00 in0.0 mm
03:07 AM 33.4°F0.8°C 33.0°F0.6°C 97% 0.9 mph 1.4 kmh 1.8 mph2.9 kmh 30.01 in1016.3 mb 0.00 in0.0 mm 0.00 in0.0 mm 0.00 in0.0 mm
03:02 AM 33.4°F0.8°C 33.0°F0.6°C 97% 0.9 mph NE1.4 kmh NE 1.8 mph2.9 kmh 30.01 in1016.3 mb 0.00 in0.0 mm 0.00 in0.0 mm 0.00 in0.0 mm
02:57 AM 33.4°F0.8°C 33.0°F0.6°C 97% 0.9 mph NE1.4 kmh NE 2.7 mph4.3 kmh 30.02 in1016.6 mb 0.00 in0.0 mm 0.00 in0.0 mm 0.00 in0.0 mm
02:52 AM 33.3°F0.7°C 33.0°F0.6°C 97% 0.9 mph E1.4 kmh E 2.7 mph4.3 kmh 30.01 in1016.3 mb 0.00 in0.0 mm 0.00 in0.0 mm 0.00 in0.0 mm
02:47 AM 33.3°F0.7°C 33.0°F0.6°C 97% 1.8 mph NE2.9 kmh NE 3.6 mph5.8 kmh 30.01 in1016.3 mb 0.00 in0.0 mm 0.00 in0.0 mm 0.00 in0.0 mm
02:42 AM 33.3°F0.7°C 33.0°F0.6°C 97% 0.9 mph NE1.4 kmh NE 2.7 mph4.3 kmh 30.01 in1016.3 mb 0.00 in0.0 mm 0.00 in0.0 mm 0.00 in0.0 mm
02:37 AM 33.3°F0.7°C 33.0°F0.6°C 97% 0.9 mph NE1.4 kmh NE 2.7 mph4.3 kmh 30.01 in1016.3 mb 0.00 in0.0 mm 0.00 in0.0 mm 0.00 in0.0 mm
02:32 AM 33.4°F0.8°C 33.0°F0.6°C 97% 0.9 mph E1.4 kmh E 2.7 mph4.3 kmh 30.02 in1016.6 mb 0.00 in0.0 mm 0.00 in0.0 mm 0.00 in0.0 mm
02:27 AM 33.3°F0.7°C 33.0°F0.6°C 97% 0.9 mph 1.4 kmh 2.7 mph4.3 kmh 30.01 in1016.3 mb 0.00 in0.0 mm 0.00 in0.0 mm 0.00 in0.0 mm
02:22 AM 33.4°F0.8°C 33.0°F0.6°C 97% Calm Calm 1.8 mph2.9 kmh 30.01 in1016.3 mb 0.00 in0.0 mm 0.00 in0.0 mm 0.00 in0.0 mm
02:17 AM 33.3°F0.7°C 33.0°F0.6°C 97% 0.9 mph 1.4 kmh 2.7 mph4.3 kmh 30.02 in1016.6 mb 0.00 in0.0 mm 0.00 in0.0 mm 0.00 in0.0 mm
02:12 AM 33.4°F0.8°C 33.0°F0.6°C 97% 0.9 mph 1.4 kmh 3.6 mph5.8 kmh 30.01 in1016.3 mb 0.00 in0.0 mm 0.00 in0.0 mm 0.00 in0.0 mm
02:07 AM 33.4°F0.8°C 33.0°F0.6°C 97% 0.9 mph 1.4 kmh 3.6 mph5.8 kmh 30.01 in1016.3 mb 0.00 in0.0 mm 0.00 in0.0 mm 0.00 in0.0 mm
02:02 AM 33.3°F0.7°C 33.0°F0.6°C 98% 0.9 mph 1.4 kmh 2.7 mph4.3 kmh 30.01 in1016.3 mb 0.00 in0.0 mm 0.00 in0.0 mm 0.00 in0.0 mm
01:57 AM 33.3°F0.7°C 33.0°F0.6°C 98% 0.9 mph 1.4 kmh 2.7 mph4.3 kmh 30.01 in1016.3 mb 0.00 in0.0 mm 0.00 in0.0 mm 0.00 in0.0 mm
01:52 AM 33.3°F0.7°C 33.0°F0.6°C 98% 1.8 mph 2.9 kmh 4.5 mph7.2 kmh 30.01 in1016.3 mb 0.00 in0.0 mm 0.00 in0.0 mm 0.00 in0.0 mm
01:47 AM 33.3°F0.7°C 33.0°F0.6°C 98% 0.9 mph NE1.4 kmh NE 2.7 mph4.3 kmh 30.01 in1016.3 mb 0.00 in0.0 mm 0.00 in0.0 mm 0.00 in0.0 mm
01:42 AM 33.3°F0.7°C 33.0°F0.6°C 98% 0.9 mph 1.4 kmh 2.7 mph4.3 kmh 30.01 in1016.3 mb 0.00 in0.0 mm 0.00 in0.0 mm 0.00 in0.0 mm
01:37 AM 33.3°F0.7°C 33.0°F0.6°C 98% 0.9 mph 1.4 kmh 2.7 mph4.3 kmh 30.01 in1016.3 mb 0.00 in0.0 mm 0.00 in0.0 mm 0.00 in0.0 mm
01:32 AM 33.3°F0.7°C 33.0°F0.6°C 98% 0.9 mph NE1.4 kmh NE 2.7 mph4.3 kmh 30.01 in1016.3 mb 0.00 in0.0 mm 0.00 in0.0 mm 0.00 in0.0 mm
01:27 AM 33.1°F0.6°C 33.0°F0.6°C 98% 1.8 mph NE2.9 kmh NE 4.5 mph7.2 kmh 30.01 in1016.3 mb 0.00 in0.0 mm 0.00 in0.0 mm 0.00 in0.0 mm
01:22 AM 33.1°F0.6°C 33.0°F0.6°C 98% 1.8 mph E2.9 kmh E 5.4 mph8.7 kmh 30.01 in1016.3 mb 0.00 in0.0 mm 0.00 in0.0 mm 0.00 in0.0 mm
01:17 AM 33.1°F0.6°C 33.0°F0.6°C 98% 1.8 mph 2.9 kmh 3.6 mph5.8 kmh 30.01 in1016.3 mb 0.00 in0.0 mm 0.00 in0.0 mm 0.00 in0.0 mm
01:12 AM 33.1°F0.6°C 33.0°F0.6°C 97% 2.7 mph NE4.3 kmh NE 4.5 mph7.2 kmh 30.01 in1016.3 mb 0.00 in0.0 mm 0.00 in0.0 mm 0.00 in0.0 mm
01:07 AM 33.1°F0.6°C 33.0°F0.6°C 97% 1.8 mph NE2.9 kmh NE 3.6 mph5.8 kmh 30.01 in1016.3 mb 0.00 in0.0 mm 0.00 in0.0 mm 0.00 in0.0 mm
01:02 AM 33.1°F0.6°C 33.0°F0.6°C 97% 1.8 mph NE2.9 kmh NE 4.5 mph7.2 kmh 30.01 in1016.3 mb 0.00 in0.0 mm 0.00 in0.0 mm 0.00 in0.0 mm
12:57 AM 33.1°F0.6°C 33.0°F0.6°C 97% 0.9 mph NE1.4 kmh NE 2.7 mph4.3 kmh 30.01 in1016.3 mb 0.00 in0.0 mm 0.00 in0.0 mm 0.00 in0.0 mm
12:52 AM 33.1°F0.6°C 33.0°F0.6°C 97% 1.8 mph NE2.9 kmh NE 3.6 mph5.8 kmh 30.01 in1016.3 mb 0.00 in0.0 mm 0.00 in0.0 mm 0.00 in0.0 mm
12:47 AM 33.1°F0.6°C 33.0°F0.6°C 97% 1.8 mph NE2.9 kmh NE 3.6 mph5.8 kmh 30.01 in1016.3 mb 0.00 in0.0 mm 0.00 in0.0 mm 0.00 in0.0 mm
12:42 AM 33.1°F0.6°C 33.0°F0.6°C 97% 0.9 mph 1.4 kmh 2.7 mph4.3 kmh 30.01 in1016.3 mb 0.00 in0.0 mm 0.00 in0.0 mm 0.00 in0.0 mm
12:37 AM 33.1°F0.6°C 33.0°F0.6°C 97% 0.9 mph 1.4 kmh 3.6 mph5.8 kmh 30.01 in1016.3 mb 0.00 in0.0 mm 0.00 in0.0 mm 0.00 in0.0 mm
12:32 AM 33.1°F0.6°C 33.0°F0.6°C 97% 0.9 mph NE1.4 kmh NE 3.6 mph5.8 kmh 30.01 in1016.3 mb 0.00 in0.0 mm 0.00 in0.0 mm 0.00 in0.0 mm
12:27 AM 33.1°F0.6°C 33.0°F0.6°C 97% 1.8 mph 2.9 kmh 3.6 mph5.8 kmh 30.01 in1016.3 mb 0.00 in0.0 mm 0.00 in0.0 mm 0.00 in0.0 mm
12:22 AM 33.1°F0.6°C 33.0°F0.6°C 97% 1.8 mph 2.9 kmh 2.7 mph4.3 kmh 30.01 in1016.3 mb 0.00 in0.0 mm 0.00 in0.0 mm 0.00 in0.0 mm
12:17 AM 33.1°F0.6°C 33.0°F0.6°C 97% 0.9 mph NE1.4 kmh NE 3.6 mph5.8 kmh 30.01 in1016.3 mb 0.00 in0.0 mm 0.00 in0.0 mm 0.00 in0.0 mm
12:12 AM 33.1°F0.6°C 32.0°F0.0°C 96% 1.8 mph 2.9 kmh 4.5 mph7.2 kmh 30.01 in1016.3 mb 0.00 in0.0 mm 0.00 in0.0 mm 0.00 in0.0 mm
12:07 AM 33.1°F0.6°C 32.0°F0.0°C 96% 1.8 mph NE2.9 kmh NE 3.6 mph5.8 kmh 30.01 in1016.3 mb 0.00 in0.0 mm 0.00 in0.0 mm 0.00 in0.0 mm
12:02 AM 33.1°F0.6°C 32.0°F0.0°C 96% 1.8 mph NE2.9 kmh NE 3.6 mph5.8 kmh 30.01 in1016.3 mb 0.00 in0.0 mm 0.00 in0.0 mm 0.00 in0.0 mm